Time;durP1;ratioP1;P1;durP2;ratioP2;P2;SDS_P1;SDS_P2;PMS_P1;PMS_P2;Temp;Humidity;BMP_temperature;BMP_pressure;BME280_temperature;BME280_humidity;BME280_pressure;Samples;Min_cycle;Max_cycle;Signal;HPM_P1;HPM_P2
2022/07/03 00:01:03;;;;;;;88.28;78.45;;;;;;;;;;5012003;28;20228;-50
2022/07/03 00:03:29;;;;;;;80.28;72.25;;;;;;;;;;5012066;28;20209;-49
2022/07/03 00:05:55;;;;;;;73.38;65.80;;;;;;;;;;5012280;28;20255;-50
2022/07/03 00:08:21;;;;;;;70.88;64.80;;;;;;;;;;5012121;28;20216;-50
2022/07/03 00:10:47;;;;;;;86.15;73.95;;;;;;;;;;5011947;28;20223;-50
2022/07/03 00:13:13;;;;;;;78.93;69.80;;;;;;;;;;5011838;28;20223;-49
2022/07/03 00:15:39;;;;;;;81.15;72.43;;;;;;;;;;5011519;28;20244;-50
2022/07/03 00:18:05;;;;;;;84.50;73.03;;;;;;;;;;5012126;28;20243;-50
2022/07/03 00:20:36;;;;;;;94.72;75.43;;;;;;;;;;5010588;28;20229;-49
2022/07/03 00:23:05;;;;;;;74.65;66.07;;;;;;;;;;4997304;28;20272;-50
2022/07/03 00:25:33;;;;;;;72.55;64.82;;;;;;;;;;4992127;28;20593;-50
2022/07/03 00:27:59;;;;;;;81.65;63.80;;;;;;;;;;4991997;28;20233;-50
2022/07/03 00:30:25;;;;;;;70.38;62.90;;;;;;;;;;4992010;28;20240;-50
2022/07/03 00:32:52;;;;;;;74.75;65.05;;;;;;;;;;4992463;28;20257;-50
2022/07/03 00:35:18;;;;;;;78.43;63.33;;;;;;;;;;5001634;28;20221;-50
2022/07/03 00:37:44;;;;;;;79.28;57.60;;;;;;;;;;5010957;28;20201;-50
2022/07/03 00:40:10;;;;;;;84.35;58.17;;;;;;;;;;5011352;28;20300;-50
2022/07/03 00:42:38;;;;;;;73.32;55.40;;;;;;;;;;5011218;28;20608;-50
2022/07/03 00:45:07;;;;;;;57.35;49.17;;;;;;;;;;5012009;28;20285;-49
2022/07/03 00:47:35;;;;;;;81.00;58.42;;;;;;;;;;5011090;28;20212;-50
2022/07/03 00:50:05;;;;;;;67.18;53.60;;;;;;;;;;5011117;28;20209;-50
2022/07/03 00:52:33;;;;;;;51.40;46.95;;;;;;;;;;5011370;28;20223;-50
2022/07/03 00:54:59;;;;;;;63.47;51.72;;;;;;;;;;5011149;28;20196;-50
2022/07/03 00:57:26;;;;;;;70.60;51.13;;;;;;;;;;5010541;28;20212;-50
2022/07/03 00:59:53;;;;;;;71.00;50.65;;;;;;;;;;5011682;28;20652;-50
2022/07/03 01:02:33;;;;;;;68.68;51.90;;;;;;;;;;5025830;28;20586;-50
2022/07/03 01:05:05;;;;;;;61.30;50.35;;;;;;;;;;5011228;28;20581;-49
2022/07/03 01:07:31;;;;;;;73.80;53.85;;;;;;;;;;5010838;28;20229;-50
2022/07/03 01:10:04;;;;;;;74.95;54.63;;;;;;;;;;5010995;28;20290;-50
2022/07/03 01:12:48;;;;;;;76.45;54.92;;;;;;;;;;5022477;28;20217;-50
2022/07/03 01:15:22;;;;;;;74.50;51.05;;;;;;;;;;4991405;28;20654;-50
2022/07/03 01:17:54;;;;;;;55.72;45.85;;;;;;;;;;4991185;28;20245;-50
2022/07/03 01:20:24;;;;;;;63.42;47.38;;;;;;;;;;4991330;28;20222;-50
2022/07/03 01:22:54;;;;;;;65.85;52.60;;;;;;;;;;4988123;28;20279;-50
2022/07/03 01:25:28;;;;;;;64.07;47.28;;;;;;;;;;4991335;28;20218;-50
2022/07/03 01:28:00;;;;;;;45.05;41.00;;;;;;;;;;4990912;28;20293;-50
2022/07/03 01:30:27;;;;;;;59.20;46.05;;;;;;;;;;4997516;28;20216;-50
2022/07/03 01:32:58;;;;;;;81.30;55.38;;;;;;;;;;5010800;28;20177;-49
2022/07/03 01:35:28;;;;;;;74.45;53.90;;;;;;;;;;5010699;28;20307;-50
2022/07/03 01:37:55;;;;;;;76.55;55.03;;;;;;;;;;5010420;28;20300;-50
2022/07/03 01:40:24;;;;;;;61.50;51.20;;;;;;;;;;5010420;28;20228;-50
2022/07/03 01:42:52;;;;;;;80.28;52.05;;;;;;;;;;5010267;28;20213;-49
2022/07/03 01:45:19;;;;;;;48.20;43.22;;;;;;;;;;5010584;28;20638;-50
2022/07/03 01:47:46;;;;;;;75.85;65.65;;;;;;;;;;5010093;28;20169;-49
2022/07/03 01:50:14;;;;;;;55.10;41.28;;;;;;;;;;5010270;28;20209;-49
2022/07/03 01:52:44;;;;;;;77.93;45.47;;;;;;;;;;5010231;28;20216;-50
2022/07/03 01:55:12;;;;;;;42.58;37.17;;;;;;;;;;5010355;28;20216;-50
2022/07/03 01:57:48;;;;;;;56.72;37.85;;;;;;;;;;5009920;28;20217;-50
2022/07/03 02:00:16;;;;;;;74.75;42.83;;;;;;;;;;5010063;28;20204;-50
2022/07/03 02:02:56;;;;;;;59.30;40.70;;;;;;;;;;5010772;28;20169;-50
2022/07/03 02:05:29;;;;;;;52.40;35.05;;;;;;;;;;5010478;28;20236;-49
2022/07/03 02:08:03;;;;;;;58.75;36.00;;;;;;;;;;5010220;28;20267;-49
2022/07/03 02:10:33;;;;;;;59.72;36.58;;;;;;;;;;5010054;28;20299;-50
2022/07/03 02:13:07;;;;;;;65.35;36.85;;;;;;;;;;5010230;28;20759;-50
2022/07/03 02:15:34;;;;;;;68.85;35.85;;;;;;;;;;5009984;28;20703;-49
2022/07/03 02:18:27;;;;;;;59.47;34.97;;;;;;;;;;5010751;28;20529;-50
2022/07/03 02:21:05;;;;;;;64.97;34.88;;;;;;;;;;5008176;28;20412;-50
2022/07/03 02:23:32;;;;;;;54.45;29.52;;;;;;;;;;5010287;28;20271;-50
2022/07/03 02:26:01;;;;;;;55.95;29.08;;;;;;;;;;5009816;28;20566;-50
2022/07/03 02:28:45;;;;;;;57.53;29.77;;;;;;;;;;5009903;28;20225;-50
2022/07/03 02:31:12;;;;;;;43.47;28.25;;;;;;;;;;5009846;28;20244;-50
2022/07/03 02:33:40;;;;;;;57.25;29.60;;;;;;;;;;5010252;28;20751;-50
2022/07/03 02:36:10;;;;;;;59.85;31.83;;;;;;;;;;5010304;28;20193;-50
2022/07/03 02:38:36;;;;;;;61.47;32.20;;;;;;;;;;5010736;28;20192;-50
2022/07/03 02:41:20;;;;;;;55.33;28.45;;;;;;;;;;5009663;28;20300;-50
2022/07/03 02:44:05;;;;;;;31.23;22.30;;;;;;;;;;5010039;28;20710;-50
2022/07/03 02:46:48;;;;;;;52.47;27.27;;;;;;;;;;5009831;28;20224;-49
2022/07/03 02:49:23;;;;;;;59.65;25.17;;;;;;;;;;5009772;28;20248;-49
2022/07/03 02:51:51;;;;;;;67.93;28.95;;;;;;;;;;5009911;28;20770;-50
2022/07/03 02:54:18;;;;;;;66.25;29.42;;;;;;;;;;5009846;28;20177;-49
2022/07/03 02:56:56;;;;;;;56.83;25.02;;;;;;;;;;5010101;28;20229;-49
2022/07/03 02:59:31;;;;;;;60.42;25.17;;;;;;;;;;5001763;28;20226;-50
2022/07/03 03:02:07;;;;;;;62.90;25.05;;;;;;;;;;4993493;28;20232;-49
2022/07/03 03:04:33;;;;;;;31.17;14.77;;;;;;;;;;4993920;28;20216;-49
2022/07/03 03:07:04;;;;;;;54.88;21.58;;;;;;;;;;4993164;28;20225;-50
2022/07/03 03:09:40;;;;;;;72.35;24.42;;;;;;;;;;4993634;28;20280;-50
2022/07/03 03:12:06;;;;;;;48.45;19.88;;;;;;;;;;4993844;28;20636;-50
2022/07/03 03:14:39;;;;;;;54.40;19.05;;;;;;;;;;4993490;28;20221;-50
2022/07/03 03:17:06;;;;;;;48.05;17.48;;;;;;;;;;4993194;28;20296;-50
2022/07/03 03:19:36;;;;;;;66.70;23.23;;;;;;;;;;4993106;28;20217;-49
2022/07/03 03:22:10;;;;;;;66.25;23.52;;;;;;;;;;4992389;28;20335;-49
2022/07/03 03:24:36;;;;;;;27.13;12.95;;;;;;;;;;4992993;28;20705;-49
2022/07/03 03:27:02;;;;;;;47.95;18.23;;;;;;;;;;4993547;28;20208;-49
2022/07/03 03:29:28;;;;;;;68.40;22.98;;;;;;;;;;4992892;28;20233;-49
2022/07/03 03:31:54;;;;;;;59.78;20.73;;;;;;;;;;4992877;28;20586;-49
2022/07/03 03:34:21;;;;;;;50.38;19.25;;;;;;;;;;4993248;28;20581;-49
2022/07/03 03:36:47;;;;;;;28.15;13.27;;;;;;;;;;4992859;28;20291;-49
2022/07/03 03:39:13;;;;;;;49.63;19.60;;;;;;;;;;4993030;28;20174;-49
2022/07/03 03:41:38;;;;;;;46.80;18.52;;;;;;;;;;4993154;28;20197;-49
2022/07/03 03:44:04;;;;;;;64.60;24.08;;;;;;;;;;4993174;28;20213;-49
2022/07/03 03:46:31;;;;;;;62.20;23.60;;;;;;;;;;4992704;28;20578;-49
2022/07/03 03:48:57;;;;;;;54.88;22.17;;;;;;;;;;4992974;28;20213;-49
2022/07/03 03:51:23;;;;;;;59.15;22.15;;;;;;;;;;4992694;28;20580;-49
2022/07/03 03:53:49;;;;;;;61.53;22.33;;;;;;;;;;4993106;28;20552;-49
2022/07/03 03:56:15;;;;;;;58.75;22.38;;;;;;;;;;4992673;28;20222;-49
2022/07/03 03:58:41;;;;;;;35.72;17.40;;;;;;;;;;4992307;28;20213;-49
2022/07/03 04:01:08;;;;;;;63.75;23.02;;;;;;;;;;4992447;28;20218;-49
2022/07/03 04:03:34;;;;;;;45.33;18.55;;;;;;;;;;4992815;28;20209;-49
2022/07/03 04:06:00;;;;;;;51.30;20.08;;;;;;;;;;4992640;28;20215;-49
2022/07/03 04:08:26;;;;;;;36.97;17.23;;;;;;;;;;4992598;28;20313;-49
2022/07/03 04:10:53;;;;;;;59.97;21.83;;;;;;;;;;4991290;28;20213;-49
2022/07/03 04:13:19;;;;;;;51.30;20.45;;;;;;;;;;4992300;28;20304;-49
2022/07/03 04:15:45;;;;;;;54.90;20.60;;;;;;;;;;4992102;28;20221;-48
2022/07/03 04:18:11;;;;;;;49.72;20.65;;;;;;;;;;4992069;28;20169;-49
2022/07/03 04:20:37;;;;;;;35.60;17.20;;;;;;;;;;4991111;28;20205;-49
2022/07/03 04:23:03;;;;;;;45.13;20.02;;;;;;;;;;4992296;28;20459;-49
2022/07/03 04:25:29;;;;;;;55.40;22.90;;;;;;;;;;4992163;28;20315;-49
2022/07/03 04:27:55;;;;;;;40.42;19.38;;;;;;;;;;4991652;28;20237;-49
2022/07/03 04:30:22;;;;;;;43.28;20.38;;;;;;;;;;4991984;28;20589;-49
2022/07/03 04:32:48;;;;;;;54.47;21.98;;;;;;;;;;4992500;28;20178;-49
2022/07/03 04:35:14;;;;;;;77.93;28.60;;;;;;;;;;4991453;28;20702;-49
2022/07/03 04:37:40;;;;;;;51.22;22.02;;;;;;;;;;4991654;28;20217;-49
2022/07/03 04:40:06;;;;;;;60.40;25.23;;;;;;;;;;4990690;28;20215;-49
2022/07/03 04:42:32;;;;;;;51.13;23.33;;;;;;;;;;4991558;28;20686;-50
2022/07/03 04:44:58;;;;;;;50.67;22.92;;;;;;;;;;4992255;28;20189;-50
2022/07/03 04:47:24;;;;;;;71.43;28.35;;;;;;;;;;4991136;28;20293;-49
2022/07/03 04:49:50;;;;;;;33.40;20.38;;;;;;;;;;4990582;28;20237;-50
2022/07/03 04:52:17;;;;;;;53.50;23.08;;;;;;;;;;4991475;28;20221;-50
2022/07/03 04:54:43;;;;;;;48.88;22.77;;;;;;;;;;4991852;28;20237;-51
2022/07/03 04:57:09;;;;;;;48.42;23.85;;;;;;;;;;4991424;28;20202;-50
2022/07/03 04:59:35;;;;;;;65.50;28.48;;;;;;;;;;4991953;28;20177;-49
2022/07/03 05:02:01;;;;;;;25.25;17.17;;;;;;;;;;4991693;28;20762;-50
2022/07/03 05:04:27;;;;;;;37.63;19.45;;;;;;;;;;5005985;28;20582;-50
2022/07/03 05:06:53;;;;;;;50.92;23.02;;;;;;;;;;5010568;28;20296;-50
2022/07/03 05:09:19;;;;;;;63.22;28.27;;;;;;;;;;5010976;28;20208;-50
2022/07/03 05:11:45;;;;;;;69.60;27.65;;;;;;;;;;5011186;28;20204;-49
2022/07/03 05:14:11;;;;;;;52.13;26.20;;;;;;;;;;5011178;28;20828;-49
2022/07/03 05:16:37;;;;;;;56.92;27.23;;;;;;;;;;5010573;28;20271;-50
2022/07/03 05:19:03;;;;;;;49.95;27.48;;;;;;;;;;5010804;28;20217;-49
2022/07/03 05:21:29;;;;;;;44.08;27.23;;;;;;;;;;5009343;28;20228;-50
2022/07/03 05:23:55;;;;;;;59.00;29.77;;;;;;;;;;5011372;28;20173;-50
2022/07/03 05:26:21;;;;;;;51.97;28.27;;;;;;;;;;5010554;28;20316;-49
2022/07/03 05:28:47;;;;;;;53.33;28.55;;;;;;;;;;5010461;28;20650;-50
2022/07/03 05:31:13;;;;;;;54.58;31.10;;;;;;;;;;5010520;28;20293;-50
2022/07/03 05:33:39;;;;;;;51.40;29.30;;;;;;;;;;5010531;28;20239;-50
2022/07/03 05:36:05;;;;;;;56.38;31.88;;;;;;;;;;5010641;28;20638;-49
2022/07/03 05:41:16;;;;;;;52.03;34.53;;;;;;;;;;5010490;28;20282;-50
2022/07/03 05:43:42;;;;;;;60.28;36.83;;;;;;;;;;5010559;28;20220;-50
2022/07/03 05:46:08;;;;;;;48.95;42.30;;;;;;;;;;5010133;28;20216;-50
2022/07/03 05:48:34;;;;;;;73.57;64.68;;;;;;;;;;5010415;28;20271;-49
2022/07/03 05:51:00;;;;;;;54.03;36.17;;;;;;;;;;5011013;28;20184;-50
2022/07/03 05:53:26;;;;;;;62.80;42.47;;;;;;;;;;5010166;28;20220;-50
2022/07/03 05:55:52;;;;;;;49.88;39.28;;;;;;;;;;5010416;28;20620;-52
2022/07/03 05:58:18;;;;;;;47.65;41.70;;;;;;;;;;5010391;28;20225;-52
2022/07/03 06:00:44;;;;;;;40.40;37.63;;;;;;;;;;5010562;28;20236;-52
2022/07/03 06:03:10;;;;;;;44.10;41.15;;;;;;;;;;5010752;28;20169;-52
2022/07/03 06:05:36;;;;;;;53.03;47.83;;;;;;;;;;5010781;28;20239;-52
2022/07/03 06:08:03;;;;;;;53.60;48.00;;;;;;;;;;5010358;28;20247;-50
2022/07/03 06:10:29;;;;;;;54.08;47.72;;;;;;;;;;5010663;28;20209;-50
2022/07/03 06:12:55;;;;;;;55.85;50.50;;;;;;;;;;5010434;28;20221;-50
2022/07/03 06:15:21;;;;;;;61.85;54.90;;;;;;;;;;5010256;28;20180;-50
2022/07/03 06:17:47;;;;;;;59.08;53.53;;;;;;;;;;5010717;28;20166;-51
2022/07/03 06:20:13;;;;;;;98.20;72.68;;;;;;;;;;5007313;28;20215;-50
2022/07/03 06:22:40;;;;;;;68.55;62.08;;;;;;;;;;5007755;28;20240;-51
2022/07/03 06:25:06;;;;;;;75.90;68.85;;;;;;;;;;5010150;28;20213;-50
2022/07/03 06:27:32;;;;;;;75.22;68.80;;;;;;;;;;5009587;28;20305;-50
2022/07/03 06:29:58;;;;;;;74.20;67.68;;;;;;;;;;5010806;28;20231;-50
2022/07/03 06:32:24;;;;;;;91.88;81.97;;;;;;;;;;5009748;28;20216;-50
2022/07/03 06:34:50;;;;;;;85.82;78.05;;;;;;;;;;5028499;28;20223;-47
2022/07/03 06:37:16;;;;;;;86.78;78.05;;;;;;;;;;5013496;28;20220;-47
2022/07/03 06:39:42;;;;;;;91.45;83.88;;;;;;;;;;5013698;28;20559;-48
2022/07/03 06:42:08;;;;;;;99.50;89.68;;;;;;;;;;5013574;28;20211;-47
2022/07/03 06:44:34;;;;;;;82.18;74.78;;;;;;;;;;5014255;28;20177;-48
2022/07/03 06:47:03;;;;;;;93.88;86.07;;;;;;;;;;5013252;28;20225;-48
2022/07/03 06:49:29;;;;;;;110.68;100.03;;;;;;;;;;5008692;28;20201;-47
2022/07/03 06:51:55;;;;;;;100.20;91.95;;;;;;;;;;5013476;28;20209;-47
2022/07/03 06:54:21;;;;;;;101.63;94.05;;;;;;;;;;5013611;28;20180;-48
2022/07/03 06:56:47;;;;;;;104.25;95.03;;;;;;;;;;5013844;28;20208;-47
2022/07/03 06:59:13;;;;;;;106.32;97.38;;;;;;;;;;5013372;28;20363;-47
2022/07/03 07:01:39;;;;;;;112.45;102.78;;;;;;;;;;5013272;28;20744;-48
2022/07/03 07:04:05;;;;;;;116.95;106.32;;;;;;;;;;5028195;28;20576;-48
2022/07/03 07:06:31;;;;;;;109.25;98.72;;;;;;;;;;5033169;28;20220;-48
2022/07/03 07:08:57;;;;;;;91.90;84.25;;;;;;;;;;5016297;28;20169;-48
2022/07/03 07:11:23;;;;;;;104.47;93.82;;;;;;;;;;5013038;28;20213;-48
2022/07/03 07:13:49;;;;;;;101.75;91.70;;;;;;;;;;5013069;28;20288;-47
2022/07/03 07:16:15;;;;;;;121.13;108.65;;;;;;;;;;5012910;28;20733;-47
2022/07/03 07:18:42;;;;;;;115.32;104.43;;;;;;;;;;5013008;28;20229;-50
2022/07/03 07:21:08;;;;;;;134.48;122.40;;;;;;;;;;5013317;28;20212;-50
2022/07/03 07:23:34;;;;;;;124.38;113.30;;;;;;;;;;5013229;28;20211;-50
2022/07/03 07:26:00;;;;;;;118.85;107.82;;;;;;;;;;5012573;28;20220;-50
2022/07/03 07:28:26;;;;;;;126.60;114.57;;;;;;;;;;5012861;28;20613;-50
2022/07/03 07:30:54;;;;;;;120.25;109.25;;;;;;;;;;5012583;28;20636;-50
2022/07/03 07:33:20;;;;;;;138.55;126.95;;;;;;;;;;5013112;28;20319;-50
2022/07/03 07:35:46;;;;;;;150.10;136.48;;;;;;;;;;5013426;28;20193;-50
2022/07/03 07:38:12;;;;;;;151.00;136.35;;;;;;;;;;5012639;28;20217;-50
2022/07/03 07:40:38;;;;;;;142.25;129.40;;;;;;;;;;5012841;28;20232;-51
2022/07/03 07:43:04;;;;;;;135.35;122.88;;;;;;;;;;5012369;28;20213;-50
2022/07/03 07:45:30;;;;;;;130.90;118.70;;;;;;;;;;5012599;28;20266;-50
2022/07/03 07:47:56;;;;;;;131.70;119.53;;;;;;;;;;5013041;28;20581;-50
2022/07/03 07:50:22;;;;;;;130.35;118.55;;;;;;;;;;5012586;28;20216;-50
2022/07/03 07:52:48;;;;;;;161.02;143.88;;;;;;;;;;5012318;28;20212;-50
2022/07/03 07:55:14;;;;;;;129.80;117.72;;;;;;;;;;5012403;28;20244;-50
2022/07/03 07:57:41;;;;;;;141.48;128.32;;;;;;;;;;5012422;28;20739;-50
2022/07/03 08:00:11;;;;;;;168.10;151.35;;;;;;;;;;5012339;28;20180;-50
2022/07/03 08:05:38;;;;;;;145.25;131.48;;;;;;;;;;5012135;28;20267;-50
2022/07/03 08:08:08;;;;;;;170.65;153.32;;;;;;;;;;5012602;28;20224;-50
2022/07/03 08:10:41;;;;;;;185.57;166.73;;;;;;;;;;5011964;28;20220;-51
2022/07/03 08:13:08;;;;;;;161.10;145.15;;;;;;;;;;5012333;28;20212;-50
2022/07/03 08:15:34;;;;;;;156.82;140.95;;;;;;;;;;5011786;28;20217;-51
2022/07/03 08:18:00;;;;;;;164.18;148.38;;;;;;;;;;5012538;28;20649;-51
2022/07/03 08:20:27;;;;;;;159.57;144.70;;;;;;;;;;5011966;28;20719;-50
2022/07/03 08:22:53;;;;;;;180.63;162.30;;;;;;;;;;5004251;28;20251;-57
2022/07/03 08:25:19;;;;;;;216.10;182.82;;;;;;;;;;4997961;28;20320;-58
2022/07/03 08:27:45;;;;;;;222.35;185.55;;;;;;;;;;4993498;28;20876;-57
2022/07/03 08:30:14;;;;;;;219.65;180.77;;;;;;;;;;5010940;28;20200;-56
2022/07/03 08:32:40;;;;;;;193.48;169.90;;;;;;;;;;4991793;28;20933;-58
2022/07/03 08:35:06;;;;;;;185.32;166.38;;;;;;;;;;5000709;28;20212;-58
2022/07/03 08:37:32;;;;;;;208.50;181.10;;;;;;;;;;4999403;28;20743;-57
2022/07/03 08:39:58;;;;;;;233.70;202.65;;;;;;;;;;4987938;28;20217;-57
2022/07/03 08:42:24;;;;;;;197.10;173.48;;;;;;;;;;4993370;28;20269;-56
2022/07/03 08:44:50;;;;;;;231.02;182.15;;;;;;;;;;4990738;28;20377;-58
2022/07/03 08:47:17;;;;;;;243.40;198.02;;;;;;;;;;4985856;28;20284;-56
2022/07/03 08:49:43;;;;;;;255.63;198.38;;;;;;;;;;4984442;28;20221;-56
2022/07/03 08:52:10;;;;;;;207.40;181.80;;;;;;;;;;4992280;28;20221;-56
2022/07/03 08:54:37;;;;;;;189.25;169.55;;;;;;;;;;5001721;28;20681;-56
2022/07/03 08:57:03;;;;;;;206.43;185.55;;;;;;;;;;4994842;28;20219;-56
2022/07/03 08:59:36;;;;;;;206.85;185.70;;;;;;;;;;4992872;28;20182;-56
2022/07/03 09:02:05;;;;;;;206.75;184.48;;;;;;;;;;4990468;28;20225;-57
2022/07/03 09:04:32;;;;;;;190.77;172.23;;;;;;;;;;4991885;28;20425;-56
2022/07/03 09:06:59;;;;;;;212.02;189.68;;;;;;;;;;4992869;28;20738;-57
2022/07/03 09:09:25;;;;;;;216.98;194.32;;;;;;;;;;4990420;28;20297;-56
2022/07/03 09:11:51;;;;;;;216.85;193.82;;;;;;;;;;4995264;28;20713;-51
2022/07/03 09:14:17;;;;;;;205.63;183.93;;;;;;;;;;4991553;28;20241;-52
2022/07/03 09:16:43;;;;;;;190.95;173.10;;;;;;;;;;4990904;28;20641;-51
2022/07/03 09:19:09;;;;;;;193.90;176.23;;;;;;;;;;4991387;28;20305;-51
2022/07/03 09:21:37;;;;;;;193.05;175.05;;;;;;;;;;4991268;28;20224;-51
2022/07/03 09:24:07;;;;;;;205.88;186.23;;;;;;;;;;4991160;28;20173;-51
2022/07/03 09:26:34;;;;;;;192.77;176.32;;;;;;;;;;4991609;28;20196;-52
2022/07/03 09:29:00;;;;;;;205.23;186.18;;;;;;;;;;4990729;28;20221;-51
2022/07/03 09:31:27;;;;;;;195.05;177.32;;;;;;;;;;4990283;28;20210;-51
2022/07/03 09:34:01;;;;;;;201.60;183.40;;;;;;;;;;4991104;28;20216;-53
2022/07/03 09:36:39;;;;;;;223.50;199.25;;;;;;;;;;4993228;28;20720;-53
2022/07/03 09:39:11;;;;;;;219.52;197.50;;;;;;;;;;4989980;28;20181;-53
2022/07/03 09:41:56;;;;;;;225.68;202.48;;;;;;;;;;4989627;28;20201;-53
2022/07/03 09:44:29;;;;;;;234.68;209.82;;;;;;;;;;4990798;28;20562;-53
2022/07/03 09:47:07;;;;;;;243.73;215.90;;;;;;;;;;4989917;28;20213;-53
2022/07/03 09:49:45;;;;;;;224.85;201.10;;;;;;;;;;4993085;28;20254;-53
2022/07/03 09:52:25;;;;;;;221.82;199.40;;;;;;;;;;4990095;28;20217;-53
2022/07/03 09:54:51;;;;;;;229.00;205.57;;;;;;;;;;4987580;28;20304;-53
2022/07/03 09:57:18;;;;;;;224.68;200.70;;;;;;;;;;4991076;28;20730;-53
2022/07/03 09:59:44;;;;;;;245.05;219.38;;;;;;;;;;4988156;28;20177;-53
2022/07/03 10:02:10;;;;;;;241.40;215.60;;;;;;;;;;4988983;28;20698;-53
2022/07/03 10:04:36;;;;;;;224.40;201.15;;;;;;;;;;4990794;28;20202;-53
2022/07/03 10:07:03;;;;;;;235.63;209.95;;;;;;;;;;4991962;28;20275;-53
2022/07/03 10:09:31;;;;;;;207.60;187.30;;;;;;;;;;4994814;28;20280;-53
2022/07/03 10:11:58;;;;;;;223.25;197.68;;;;;;;;;;4992040;28;20189;-53
2022/07/03 10:14:25;;;;;;;238.65;213.50;;;;;;;;;;4996005;28;20637;-53
2022/07/03 10:16:51;;;;;;;251.50;225.27;;;;;;;;;;4991857;28;20356;-53
2022/07/03 10:19:26;;;;;;;236.50;212.13;;;;;;;;;;4996924;28;20218;-53
2022/07/03 10:21:54;;;;;;;247.40;222.02;;;;;;;;;;4998395;28;20254;-53
2022/07/03 10:24:24;;;;;;;248.02;222.70;;;;;;;;;;4991398;28;20273;-53
2022/07/03 10:26:51;;;;;;;242.90;218.40;;;;;;;;;;4998324;28;20617;-53
2022/07/03 10:29:17;;;;;;;242.88;218.63;;;;;;;;;;4955202;28;1039713;-53
2022/07/03 10:31:47;;;;;;;258.58;233.15;;;;;;;;;;4997085;28;20212;-53
2022/07/03 10:34:17;;;;;;;254.88;228.48;;;;;;;;;;4995887;28;20292;-55
2022/07/03 10:36:44;;;;;;;240.20;213.93;;;;;;;;;;4993043;28;20232;-54
2022/07/03 10:39:13;;;;;;;267.40;240.85;;;;;;;;;;5001379;28;20196;-53
2022/07/03 10:44:46;;;;;;;249.90;225.05;;;;;;;;;;4996443;28;20224;-54
2022/07/03 10:47:31;;;;;;;237.05;211.50;;;;;;;;;;4996013;28;20473;-54
2022/07/03 10:50:02;;;;;;;250.82;225.27;;;;;;;;;;4991811;28;20665;-53
2022/07/03 10:52:28;;;;;;;245.32;220.05;;;;;;;;;;4995922;28;20356;-53
2022/07/03 10:54:57;;;;;;;268.80;240.93;;;;;;;;;;4992917;28;20296;-54
2022/07/03 10:57:23;;;;;;;270.70;240.68;;;;;;;;;;4989480;28;20575;-53
2022/07/03 10:59:49;;;;;;;291.63;260.42;;;;;;;;;;4993816;28;20182;-54
2022/07/03 11:02:18;;;;;;;303.60;270.80;;;;;;;;;;4993753;28;20243;-54
2022/07/03 11:05:11;;;;;;;285.77;255.75;;;;;;;;;;4991627;28;20348;-54
2022/07/03 11:08:04;;;;;;;324.77;283.38;;;;;;;;;;4986538;28;20255;-54
2022/07/03 11:10:31;;;;;;;293.50;257.13;;;;;;;;;;4989684;28;20204;-54
2022/07/03 11:12:57;;;;;;;300.05;267.50;;;;;;;;;;4993893;28;20217;-53
2022/07/03 11:15:26;;;;;;;385.05;302.35;;;;;;;;;;4989889;28;20224;-51
2022/07/03 11:18:13;;;;;;;308.60;276.52;;;;;;;;;;5000502;28;20177;-52
2022/07/03 11:20:42;;;;;;;302.42;270.25;;;;;;;;;;4997556;28;20209;-51
2022/07/03 11:23:23;;;;;;;276.17;248.52;;;;;;;;;;4997537;28;20859;-51
2022/07/03 11:25:51;;;;;;;299.25;269.27;;;;;;;;;;4993824;28;20221;-51
2022/07/03 11:28:32;;;;;;;297.02;264.27;;;;;;;;;;4992939;28;20221;-51
2022/07/03 11:33:46;;;;;;;295.00;263.98;;;;;;;;;;4999322;28;20221;-51
2022/07/03 11:36:25;;;;;;;312.25;279.48;;;;;;;;;;4992726;28;20573;-51
2022/07/03 11:38:51;;;;;;;302.90;271.05;;;;;;;;;;4995417;28;20177;-51
2022/07/03 11:41:17;;;;;;;326.08;289.23;;;;;;;;;;4995315;28;20219;-52
2022/07/03 11:44:09;;;;;;;318.38;284.90;;;;;;;;;;4999008;28;20256;-52
2022/07/03 11:46:36;;;;;;;312.10;280.08;;;;;;;;;;4995746;28;20259;-52
2022/07/03 11:49:12;;;;;;;312.40;279.73;;;;;;;;;;4994351;28;20253;-52
2022/07/03 11:51:39;;;;;;;279.13;250.50;;;;;;;;;;4995316;28;20447;-52
2022/07/03 11:54:05;;;;;;;338.67;284.63;;;;;;;;;;4994097;28;20185;-51
2022/07/03 11:56:32;;;;;;;323.45;288.23;;;;;;;;;;4990402;28;21229;-51
2022/07/03 11:58:59;;;;;;;313.15;272.17;;;;;;;;;;4997849;28;20741;-51
2022/07/03 12:01:24;;;;;;;321.42;287.27;;;;;;;;;;4993518;28;20263;-51
2022/07/03 12:03:51;;;;;;;317.55;284.48;;;;;;;;;;4995395;28;20221;-52
2022/07/03 12:06:17;;;;;;;318.73;284.08;;;;;;;;;;4995313;28;20723;-52
2022/07/03 12:08:47;;;;;;;299.92;269.55;;;;;;;;;;4997632;28;20183;-52
2022/07/03 12:11:13;;;;;;;383.20;298.58;;;;;;;;;;4993761;28;20700;-52
2022/07/03 12:13:40;;;;;;;292.33;257.20;;;;;;;;;;4995991;28;20221;-52
2022/07/03 12:16:09;;;;;;;283.25;253.57;;;;;;;;;;4990822;28;20224;-51
2022/07/03 12:19:01;;;;;;;304.63;263.77;;;;;;;;;;4991013;28;20209;-51
2022/07/03 12:21:32;;;;;;;355.50;274.15;;;;;;;;;;4987641;28;20233;-52
2022/07/03 12:23:58;;;;;;;310.13;263.48;;;;;;;;;;4993303;28;20205;-52
2022/07/03 12:26:29;;;;;;;319.95;282.50;;;;;;;;;;4996801;28;20640;-52
2022/07/03 12:28:55;;;;;;;305.63;272.23;;;;;;;;;;4994730;28;20225;-52
2022/07/03 12:31:21;;;;;;;321.20;285.85;;;;;;;;;;4991200;28;20206;-52
2022/07/03 12:33:47;;;;;;;353.05;304.95;;;;;;;;;;4990430;28;20669;-52
2022/07/03 12:36:13;;;;;;;345.17;307.65;;;;;;;;;;4987738;28;20229;-51
2022/07/03 12:38:39;;;;;;;388.60;311.60;;;;;;;;;;4995905;28;20192;-52
2022/07/03 12:41:09;;;;;;;340.92;296.30;;;;;;;;;;4991813;28;20229;-52
2022/07/03 12:43:42;;;;;;;341.38;299.45;;;;;;;;;;4990409;28;20224;-52
2022/07/03 12:46:28;;;;;;;353.40;310.90;;;;;;;;;;4991301;28;20220;-52
2022/07/03 12:48:56;;;;;;;381.75;330.58;;;;;;;;;;4994611;28;20727;-52
2022/07/03 12:51:41;;;;;;;370.75;310.92;;;;;;;;;;4991609;28;20223;-52
2022/07/03 12:54:30;;;;;;;403.75;322.88;;;;;;;;;;4977479;28;20721;-52
2022/07/03 13:00:06;;;;;;;354.20;314.88;;;;;;;;;;4991994;28;20259;-52
2022/07/03 13:02:33;;;;;;;378.75;320.13;;;;;;;;;;4995211;28;21070;-52
2022/07/03 13:04:59;;;;;;;363.83;323.08;;;;;;;;;;5000735;28;20725;-52
2022/07/03 13:07:28;;;;;;;372.17;329.95;;;;;;;;;;4999062;28;20289;-52
2022/07/03 13:09:54;;;;;;;379.60;339.92;;;;;;;;;;5000998;28;20220;-52
2022/07/03 13:12:23;;;;;;;423.15;375.13;;;;;;;;;;4995651;28;20193;-52
2022/07/03 13:14:56;;;;;;;365.67;327.83;;;;;;;;;;4994190;28;20189;-52
2022/07/03 13:17:22;;;;;;;364.95;315.05;;;;;;;;;;4995726;28;20227;-52
2022/07/03 13:19:48;;;;;;;369.20;323.63;;;;;;;;;;4998742;28;20216;-52
2022/07/03 13:22:14;;;;;;;417.70;344.10;;;;;;;;;;4994206;28;20241;-52
2022/07/03 13:24:40;;;;;;;378.67;325.67;;;;;;;;;;4995668;28;20221;-55
2022/07/03 13:27:06;;;;;;;339.98;303.27;;;;;;;;;;4990262;28;20274;-55
2022/07/03 13:29:31;;;;;;;394.40;333.88;;;;;;;;;;4999743;28;20665;-55
2022/07/03 13:31:57;;;;;;;418.95;361.17;;;;;;;;;;4989357;28;20706;-56
2022/07/03 13:34:24;;;;;;;372.83;331.85;;;;;;;;;;4994462;28;20252;-55
2022/07/03 13:36:50;;;;;;;371.17;329.77;;;;;;;;;;4995122;28;20219;-55
2022/07/03 13:39:16;;;;;;;376.50;332.02;;;;;;;;;;5000117;28;20694;-55
2022/07/03 13:41:41;;;;;;;403.05;346.17;;;;;;;;;;4995696;28;20240;-55
2022/07/03 13:44:07;;;;;;;401.50;349.20;;;;;;;;;;4992966;28;20236;-55
2022/07/03 13:46:33;;;;;;;378.00;337.52;;;;;;;;;;4993120;28;20224;-56
2022/07/03 13:48:59;;;;;;;393.63;350.50;;;;;;;;;;4983114;28;20220;-56
2022/07/03 13:51:25;;;;;;;369.13;330.20;;;;;;;;;;4994663;28;20298;-57
2022/07/03 13:53:51;;;;;;;392.67;347.10;;;;;;;;;;4994088;28;20179;-56
2022/07/03 13:56:18;;;;;;;369.25;331.77;;;;;;;;;;4993415;28;20491;-56
2022/07/03 13:58:44;;;;;;;496.25;374.17;;;;;;;;;;4994231;28;20225;-56
2022/07/03 14:01:10;;;;;;;392.02;339.42;;;;;;;;;;4995626;28;20216;-57
2022/07/03 14:03:36;;;;;;;434.05;356.60;;;;;;;;;;4988920;28;20220;-56
2022/07/03 14:06:02;;;;;;;425.88;351.40;;;;;;;;;;4987941;28;20220;-58
2022/07/03 14:08:28;;;;;;;413.35;359.35;;;;;;;;;;4987301;28;20213;-56
2022/07/03 14:10:54;;;;;;;407.45;363.15;;;;;;;;;;4989083;28;20225;-56
2022/07/03 14:13:20;;;;;;;420.88;366.25;;;;;;;;;;4981169;28;20217;-57
2022/07/03 14:15:46;;;;;;;401.42;358.48;;;;;;;;;;4990965;28;20294;-57
2022/07/03 14:18:12;;;;;;;456.27;376.38;;;;;;;;;;4980145;28;20203;-58
2022/07/03 14:20:38;;;;;;;477.23;385.70;;;;;;;;;;4980304;28;20312;-58
2022/07/03 14:23:04;;;;;;;400.25;358.27;;;;;;;;;;4990395;28;20343;-56
2022/07/03 14:25:29;;;;;;;407.17;363.55;;;;;;;;;;4988514;28;20323;-57